sensor_id;sensor_type;location;lat;lon;timestamp;temperature;humidity
4813;DHT22;2420;51.202;8.698;2022-10-04T00:00:49;6.00;1.00
4813;DHT22;2420;51.202;8.698;2022-10-04T00:03:31;6.00;1.00
4813;DHT22;2420;51.202;8.698;2022-10-04T00:05:58;5.90;1.00
4813;DHT22;2420;51.202;8.698;2022-10-04T00:08:27;5.90;1.00
4813;DHT22;2420;51.202;8.698;2022-10-04T00:11:06;6.00;1.00
4813;DHT22;2420;51.202;8.698;2022-10-04T00:13:32;5.90;1.00
4813;DHT22;2420;51.202;8.698;2022-10-04T00:16:00;5.90;1.00
4813;DHT22;2420;51.202;8.698;2022-10-04T00:18:36;6.00;1.00
4813;DHT22;2420;51.202;8.698;2022-10-04T00:21:04;6.10;1.00
4813;DHT22;2420;51.202;8.698;2022-10-04T00:26:04;6.00;1.00
4813;DHT22;2420;51.202;8.698;2022-10-04T00:28:50;6.00;1.00
4813;DHT22;2420;51.202;8.698;2022-10-04T00:31:19;5.90;1.00
4813;DHT22;2420;51.202;8.698;2022-10-04T00:34:43;6.00;1.00
4813;DHT22;2420;51.202;8.698;2022-10-04T00:36:51;5.90;1.00
4813;DHT22;2420;51.202;8.698;2022-10-04T00:39:23;5.90;1.00
4813;DHT22;2420;51.202;8.698;2022-10-04T00:42:12;5.90;1.00
4813;DHT22;2420;51.202;8.698;2022-10-04T00:44:50;6.00;1.00
4813;DHT22;2420;51.202;8.698;2022-10-04T00:47:31;6.00;1.00
4813;DHT22;2420;51.202;8.698;2022-10-04T00:50:21;6.00;1.00
4813;DHT22;2420;51.202;8.698;2022-10-04T00:52:58;6.00;1.00
4813;DHT22;2420;51.202;8.698;2022-10-04T00:55:37;5.80;1.00
4813;DHT22;2420;51.202;8.698;2022-10-04T00:58:07;5.80;1.00
4813;DHT22;2420;51.202;8.698;2022-10-04T01:00:39;5.80;1.00
4813;DHT22;2420;51.202;8.698;2022-10-04T01:03:12;5.80;1.00
4813;DHT22;2420;51.202;8.698;2022-10-04T01:05:49;5.80;1.00
4813;DHT22;2420;51.202;8.698;2022-10-04T01:08:28;5.80;1.00
4813;DHT22;2420;51.202;8.698;2022-10-04T01:11:00;5.80;1.00
4813;DHT22;2420;51.202;8.698;2022-10-04T01:15:53;5.80;1.00
4813;DHT22;2420;51.202;8.698;2022-10-04T01:21:08;5.80;1.00
4813;DHT22;2420;51.202;8.698;2022-10-04T01:23:52;5.70;1.00
4813;DHT22;2420;51.202;8.698;2022-10-04T01:26:43;5.70;1.00
4813;DHT22;2420;51.202;8.698;2022-10-04T01:29:23;5.70;1.00
4813;DHT22;2420;51.202;8.698;2022-10-04T01:31:54;5.60;1.00
4813;DHT22;2420;51.202;8.698;2022-10-04T01:34:21;5.70;1.00
4813;DHT22;2420;51.202;8.698;2022-10-04T01:36:48;5.70;1.00
4813;DHT22;2420;51.202;8.698;2022-10-04T01:39:18;5.70;1.00
4813;DHT22;2420;51.202;8.698;2022-10-04T01:47:16;5.60;1.00
4813;DHT22;2420;51.202;8.698;2022-10-04T01:49:44;5.60;1.00
4813;DHT22;2420;51.202;8.698;2022-10-04T01:52:16;5.60;1.00
4813;DHT22;2420;51.202;8.698;2022-10-04T01:54:45;5.70;1.00
4813;DHT22;2420;51.202;8.698;2022-10-04T01:57:20;5.70;1.00
4813;DHT22;2420;51.202;8.698;2022-10-04T01:59:56;5.70;1.00
4813;DHT22;2420;51.202;8.698;2022-10-04T02:02:59;5.80;1.00
4813;DHT22;2420;51.202;8.698;2022-10-04T02:05:35;5.80;1.00
4813;DHT22;2420;51.202;8.698;2022-10-04T02:08:07;5.80;1.00
4813;DHT22;2420;51.202;8.698;2022-10-04T02:10:35;5.80;1.00
4813;DHT22;2420;51.202;8.698;2022-10-04T02:13:08;5.80;1.00
4813;DHT22;2420;51.202;8.698;2022-10-04T02:15:35;5.80;1.00
4813;DHT22;2420;51.202;8.698;2022-10-04T02:18:14;5.80;1.00
4813;DHT22;2420;51.202;8.698;2022-10-04T02:20:40;5.80;1.00
4813;DHT22;2420;51.202;8.698;2022-10-04T02:23:06;5.80;1.00
4813;DHT22;2420;51.202;8.698;2022-10-04T02:25:35;5.90;1.00
4813;DHT22;2420;51.202;8.698;2022-10-04T02:28:01;6.00;1.00
4813;DHT22;2420;51.202;8.698;2022-10-04T02:30:27;6.00;1.00
4813;DHT22;2420;51.202;8.698;2022-10-04T02:32:55;6.00;1.00
4813;DHT22;2420;51.202;8.698;2022-10-04T02:35:45;5.90;1.00
4813;DHT22;2420;51.202;8.698;2022-10-04T02:45:47;6.00;1.00
4813;DHT22;2420;51.202;8.698;2022-10-04T02:50:54;6.20;1.00
4813;DHT22;2420;51.202;8.698;2022-10-04T02:53:29;6.20;1.00
4813;DHT22;2420;51.202;8.698;2022-10-04T02:55:56;6.20;1.00
4813;DHT22;2420;51.202;8.698;2022-10-04T02:58:24;6.20;1.00
4813;DHT22;2420;51.202;8.698;2022-10-04T03:00:55;6.20;1.00
4813;DHT22;2420;51.202;8.698;2022-10-04T03:03:32;6.20;1.00
4813;DHT22;2420;51.202;8.698;2022-10-04T03:06:08;6.20;1.00
4813;DHT22;2420;51.202;8.698;2022-10-04T03:08:46;6.20;1.00
4813;DHT22;2420;51.202;8.698;2022-10-04T03:11:14;6.10;1.00
4813;DHT22;2420;51.202;8.698;2022-10-04T03:13:44;6.10;1.00
4813;DHT22;2420;51.202;8.698;2022-10-04T03:16:11;6.10;1.00
4813;DHT22;2420;51.202;8.698;2022-10-04T03:18:37;6.00;1.00
4813;DHT22;2420;51.202;8.698;2022-10-04T03:21:09;6.00;1.00
4813;DHT22;2420;51.202;8.698;2022-10-04T03:23:37;6.10;1.00
4813;DHT22;2420;51.202;8.698;2022-10-04T03:26:19;6.20;1.00
4813;DHT22;2420;51.202;8.698;2022-10-04T03:28:48;6.20;1.00
4813;DHT22;2420;51.202;8.698;2022-10-04T03:31:14;6.20;1.00
4813;DHT22;2420;51.202;8.698;2022-10-04T03:33:42;6.20;1.00
4813;DHT22;2420;51.202;8.698;2022-10-04T03:36:13;6.20;1.00
4813;DHT22;2420;51.202;8.698;2022-10-04T03:38:40;6.30;1.00
4813;DHT22;2420;51.202;8.698;2022-10-04T03:41:05;6.30;1.00
4813;DHT22;2420;51.202;8.698;2022-10-04T03:43:33;6.30;1.00
4813;DHT22;2420;51.202;8.698;2022-10-04T03:46:02;6.30;1.00
4813;DHT22;2420;51.202;8.698;2022-10-04T03:48:43;6.30;1.00
4813;DHT22;2420;51.202;8.698;2022-10-04T03:51:15;6.30;1.00
4813;DHT22;2420;51.202;8.698;2022-10-04T03:53:44;6.30;1.00
4813;DHT22;2420;51.202;8.698;2022-10-04T03:58:49;6.30;1.00
4813;DHT22;2420;51.202;8.698;2022-10-04T04:01:39;6.30;1.00
4813;DHT22;2420;51.202;8.698;2022-10-04T04:09:51;6.40;1.00
4813;DHT22;2420;51.202;8.698;2022-10-04T04:15:03;6.50;1.00
4813;DHT22;2420;51.202;8.698;2022-10-04T04:17:46;6.50;1.00
4813;DHT22;2420;51.202;8.698;2022-10-04T04:20:25;6.50;1.00
4813;DHT22;2420;51.202;8.698;2022-10-04T04:23:11;6.50;1.00
4813;DHT22;2420;51.202;8.698;2022-10-04T04:25:43;6.40;1.00
4813;DHT22;2420;51.202;8.698;2022-10-04T04:28:31;6.50;1.00
4813;DHT22;2420;51.202;8.698;2022-10-04T04:31:04;6.40;1.00
4813;DHT22;2420;51.202;8.698;2022-10-04T04:33:41;6.40;1.00
4813;DHT22;2420;51.202;8.698;2022-10-04T04:36:11;6.50;1.00
4813;DHT22;2420;51.202;8.698;2022-10-04T04:38:37;6.50;1.00
4813;DHT22;2420;51.202;8.698;2022-10-04T04:41:27;6.50;1.00
4813;DHT22;2420;51.202;8.698;2022-10-04T04:43:54;6.50;1.00
4813;DHT22;2420;51.202;8.698;2022-10-04T04:46:20;6.50;1.00
4813;DHT22;2420;51.202;8.698;2022-10-04T04:48:48;6.40;1.00
4813;DHT22;2420;51.202;8.698;2022-10-04T04:51:20;6.40;1.00
4813;DHT22;2420;51.202;8.698;2022-10-04T04:53:47;6.40;1.00
4813;DHT22;2420;51.202;8.698;2022-10-04T04:56:21;6.40;1.00
4813;DHT22;2420;51.202;8.698;2022-10-04T04:58:48;6.30;1.00
4813;DHT22;2420;51.202;8.698;2022-10-04T05:01:32;6.40;1.00
4813;DHT22;2420;51.202;8.698;2022-10-04T05:04:18;6.40;1.00
4813;DHT22;2420;51.202;8.698;2022-10-04T05:06:47;6.40;1.00
4813;DHT22;2420;51.202;8.698;2022-10-04T05:09:33;6.40;1.00
4813;DHT22;2420;51.202;8.698;2022-10-04T05:12:14;6.50;1.00
4813;DHT22;2420;51.202;8.698;2022-10-04T05:14:46;6.50;1.00
4813;DHT22;2420;51.202;8.698;2022-10-04T05:17:21;6.50;1.00
4813;DHT22;2420;51.202;8.698;2022-10-04T05:19:47;6.50;1.00
4813;DHT22;2420;51.202;8.698;2022-10-04T05:22:18;6.50;1.00
4813;DHT22;2420;51.202;8.698;2022-10-04T05:24:46;6.60;1.00
4813;DHT22;2420;51.202;8.698;2022-10-04T05:27:16;6.60;1.00
4813;DHT22;2420;51.202;8.698;2022-10-04T05:29:56;6.70;1.00
4813;DHT22;2420;51.202;8.698;2022-10-04T05:35:19;6.70;1.00
4813;DHT22;2420;51.202;8.698;2022-10-04T05:38:06;6.80;1.00
4813;DHT22;2420;51.202;8.698;2022-10-04T05:46:14;6.80;1.00
4813;DHT22;2420;51.202;8.698;2022-10-04T05:48:42;6.80;1.00
4813;DHT22;2420;51.202;8.698;2022-10-04T05:51:22;6.70;1.00
4813;DHT22;2420;51.202;8.698;2022-10-04T05:53:49;6.60;1.00
4813;DHT22;2420;51.202;8.698;2022-10-04T06:10:28;6.50;1.00
4813;DHT22;2420;51.202;8.698;2022-10-04T06:13:09;6.50;1.00
4813;DHT22;2420;51.202;8.698;2022-10-04T06:19:16;6.60;1.00
4813;DHT22;2420;51.202;8.698;2022-10-04T06:24:31;6.60;1.00
4813;DHT22;2420;51.202;8.698;2022-10-04T06:27:08;6.70;1.00
4813;DHT22;2420;51.202;8.698;2022-10-04T06:29:43;6.70;1.00
4813;DHT22;2420;51.202;8.698;2022-10-04T06:35:05;6.70;1.00
4813;DHT22;2420;51.202;8.698;2022-10-04T06:38:04;6.70;1.00
4813;DHT22;2420;51.202;8.698;2022-10-04T06:43:32;6.70;1.00
4813;DHT22;2420;51.202;8.698;2022-10-04T06:46:16;6.70;1.00
4813;DHT22;2420;51.202;8.698;2022-10-04T07:02:04;7.00;1.00
4813;DHT22;2420;51.202;8.698;2022-10-04T07:04:43;7.10;1.00
4813;DHT22;2420;51.202;8.698;2022-10-04T07:09:59;7.20;1.00
4813;DHT22;2420;51.202;8.698;2022-10-04T07:12:26;7.30;1.00
4813;DHT22;2420;51.202;8.698;2022-10-04T07:14:54;7.30;1.00
4813;DHT22;2420;51.202;8.698;2022-10-04T07:17:31;7.40;1.00
4813;DHT22;2420;51.202;8.698;2022-10-04T07:19:58;7.40;1.00
4813;DHT22;2420;51.202;8.698;2022-10-04T07:22:43;7.40;1.00
4813;DHT22;2420;51.202;8.698;2022-10-04T07:25:26;7.50;1.00
4813;DHT22;2420;51.202;8.698;2022-10-04T07:33:22;7.70;1.00
4813;DHT22;2420;51.202;8.698;2022-10-04T07:35:59;7.70;1.00
4813;DHT22;2420;51.202;8.698;2022-10-04T07:38:30;7.70;1.00
4813;DHT22;2420;51.202;8.698;2022-10-04T07:41:20;7.80;1.00
4813;DHT22;2420;51.202;8.698;2022-10-04T07:43:52;7.90;1.00
4813;DHT22;2420;51.202;8.698;2022-10-04T07:46:51;8.10;1.00
4813;DHT22;2420;51.202;8.698;2022-10-04T07:49:20;8.10;1.00
4813;DHT22;2420;51.202;8.698;2022-10-04T07:54:33;8.30;1.00
4813;DHT22;2420;51.202;8.698;2022-10-04T07:57:12;8.40;1.00
4813;DHT22;2420;51.202;8.698;2022-10-04T08:04:53;8.50;1.00
4813;DHT22;2420;51.202;8.698;2022-10-04T08:07:30;8.50;1.00
4813;DHT22;2420;51.202;8.698;2022-10-04T08:12:48;8.60;1.00
4813;DHT22;2420;51.202;8.698;2022-10-04T08:15:32;8.70;1.00
4813;DHT22;2420;51.202;8.698;2022-10-04T08:18:08;8.80;1.00
4813;DHT22;2420;51.202;8.698;2022-10-04T08:20:48;8.90;1.00
4813;DHT22;2420;51.202;8.698;2022-10-04T08:26:36;9.10;1.00
4813;DHT22;2420;51.202;8.698;2022-10-04T08:38:41;9.40;1.00
4813;DHT22;2420;51.202;8.698;2022-10-04T08:41:43;9.60;1.00
4813;DHT22;2420;51.202;8.698;2022-10-04T08:44:48;9.70;1.00
4813;DHT22;2420;51.202;8.698;2022-10-04T08:47:45;9.80;1.00
4813;DHT22;2420;51.202;8.698;2022-10-04T08:50:47;9.90;1.00
4813;DHT22;2420;51.202;8.698;2022-10-04T08:56:05;10.20;1.00
4813;DHT22;2420;51.202;8.698;2022-10-04T08:58:51;10.30;1.00
4813;DHT22;2420;51.202;8.698;2022-10-04T09:12:27;10.70;1.00
4813;DHT22;2420;51.202;8.698;2022-10-04T09:15:20;11.20;1.00
4813;DHT22;2420;51.202;8.698;2022-10-04T09:26:22;11.80;1.00
4813;DHT22;2420;51.202;8.698;2022-10-04T09:37:07;12.40;1.00
4813;DHT22;2420;51.202;8.698;2022-10-04T09:39:43;12.60;1.00
4813;DHT22;2420;51.202;8.698;2022-10-04T09:45:14;12.80;1.00
4813;DHT22;2420;51.202;8.698;2022-10-04T09:51:23;12.90;1.00
4813;DHT22;2420;51.202;8.698;2022-10-04T09:59:23;13.20;1.00
4813;DHT22;2420;51.202;8.698;2022-10-04T10:10:11;13.70;1.00
4813;DHT22;2420;51.202;8.698;2022-10-04T10:13:28;13.60;1.00
4813;DHT22;2420;51.202;8.698;2022-10-04T10:30:22;13.90;1.00
4813;DHT22;2420;51.202;8.698;2022-10-04T10:38:30;14.20;1.00
4813;DHT22;2420;51.202;8.698;2022-10-04T11:16:16;15.20;1.00
4813;DHT22;2420;51.202;8.698;2022-10-04T11:19:04;15.30;1.00
4813;DHT22;2420;51.202;8.698;2022-10-04T11:22:24;15.20;1.00
4813;DHT22;2420;51.202;8.698;2022-10-04T11:27:46;15.30;1.00
4813;DHT22;2420;51.202;8.698;2022-10-04T11:30:16;15.30;1.00
4813;DHT22;2420;51.202;8.698;2022-10-04T11:38:50;15.30;1.00
4813;DHT22;2420;51.202;8.698;2022-10-04T11:47:24;15.30;1.00
4813;DHT22;2420;51.202;8.698;2022-10-04T11:53:05;15.40;1.00
4813;DHT22;2420;51.202;8.698;2022-10-04T12:29:19;15.80;1.00
4813;DHT22;2420;51.202;8.698;2022-10-04T12:34:36;15.90;1.00
4813;DHT22;2420;51.202;8.698;2022-10-04T12:37:07;15.80;1.00
4813;DHT22;2420;51.202;8.698;2022-10-04T12:39:50;15.90;1.00
4813;DHT22;2420;51.202;8.698;2022-10-04T12:42:48;15.80;1.00
4813;DHT22;2420;51.202;8.698;2022-10-04T13:04:30;15.90;1.00
4813;DHT22;2420;51.202;8.698;2022-10-04T13:07:37;15.90;1.00
4813;DHT22;2420;51.202;8.698;2022-10-04T13:19:05;15.90;1.00
4813;DHT22;2420;51.202;8.698;2022-10-04T13:24:09;15.80;1.00
4813;DHT22;2420;51.202;8.698;2022-10-04T13:31:48;15.90;1.00
4813;DHT22;2420;51.202;8.698;2022-10-04T13:45:26;16.00;1.00
4813;DHT22;2420;51.202;8.698;2022-10-04T13:48:25;16.00;1.00
4813;DHT22;2420;51.202;8.698;2022-10-04T14:00:09;16.20;1.00
4813;DHT22;2420;51.202;8.698;2022-10-04T14:05:45;16.20;1.00
4813;DHT22;2420;51.202;8.698;2022-10-04T14:11:18;16.10;1.00
4813;DHT22;2420;51.202;8.698;2022-10-04T14:14:26;16.20;1.00
4813;DHT22;2420;51.202;8.698;2022-10-04T14:25:42;16.10;1.00
4813;DHT22;2420;51.202;8.698;2022-10-04T14:34:26;16.10;1.00
4813;DHT22;2420;51.202;8.698;2022-10-04T14:37:05;16.00;1.00
4813;DHT22;2420;51.202;8.698;2022-10-04T14:42:39;16.00;1.00
4813;DHT22;2420;51.202;8.698;2022-10-04T14:48:26;16.10;1.00
4813;DHT22;2420;51.202;8.698;2022-10-04T14:51:19;16.00;1.00
4813;DHT22;2420;51.202;8.698;2022-10-04T15:01:34;16.00;1.00
4813;DHT22;2420;51.202;8.698;2022-10-04T15:04:26;16.00;1.00
4813;DHT22;2420;51.202;8.698;2022-10-04T15:11:55;15.90;1.00
4813;DHT22;2420;51.202;8.698;2022-10-04T15:17:35;15.80;1.00
4813;DHT22;2420;51.202;8.698;2022-10-04T15:20:20;15.70;1.00
4813;DHT22;2420;51.202;8.698;2022-10-04T15:22:54;15.60;1.00
4813;DHT22;2420;51.202;8.698;2022-10-04T15:25:52;15.60;1.00
4813;DHT22;2420;51.202;8.698;2022-10-04T15:31:31;15.60;1.00
4813;DHT22;2420;51.202;8.698;2022-10-04T15:34:08;15.60;1.00
4813;DHT22;2420;51.202;8.698;2022-10-04T15:43:19;15.50;1.00
4813;DHT22;2420;51.202;8.698;2022-10-04T16:00:12;15.10;1.00
4813;DHT22;2420;51.202;8.698;2022-10-04T16:03:04;15.00;1.00
4813;DHT22;2420;51.202;8.698;2022-10-04T16:05:43;14.90;1.00
4813;DHT22;2420;51.202;8.698;2022-10-04T16:13:44;14.80;1.00
4813;DHT22;2420;51.202;8.698;2022-10-04T16:18:49;14.70;1.00
4813;DHT22;2420;51.202;8.698;2022-10-04T16:24:32;14.60;1.00
4813;DHT22;2420;51.202;8.698;2022-10-04T16:30:14;14.50;1.00
4813;DHT22;2420;51.202;8.698;2022-10-04T16:38:43;14.20;1.00
4813;DHT22;2420;51.202;8.698;2022-10-04T16:41:38;14.10;1.00
4813;DHT22;2420;51.202;8.698;2022-10-04T16:44:29;14.10;1.00
4813;DHT22;2420;51.202;8.698;2022-10-04T16:47:00;14.00;1.00
4813;DHT22;2420;51.202;8.698;2022-10-04T16:49:32;14.00;1.00
4813;DHT22;2420;51.202;8.698;2022-10-04T16:55:22;13.90;1.00
4813;DHT22;2420;51.202;8.698;2022-10-04T17:03:52;13.40;1.00
4813;DHT22;2420;51.202;8.698;2022-10-04T17:06:52;13.30;1.00
4813;DHT22;2420;51.202;8.698;2022-10-04T17:17:21;12.80;1.00
4813;DHT22;2420;51.202;8.698;2022-10-04T17:19:55;12.80;1.00
4813;DHT22;2420;51.202;8.698;2022-10-04T17:25:25;12.60;1.00
4813;DHT22;2420;51.202;8.698;2022-10-04T17:36:24;12.10;1.00
4813;DHT22;2420;51.202;8.698;2022-10-04T17:44:34;11.90;1.00
4813;DHT22;2420;51.202;8.698;2022-10-04T17:47:10;11.70;1.00
4813;DHT22;2420;51.202;8.698;2022-10-04T17:49:42;11.60;1.00
4813;DHT22;2420;51.202;8.698;2022-10-04T17:52:39;11.50;1.00
4813;DHT22;2420;51.202;8.698;2022-10-04T17:55:45;11.50;1.00
4813;DHT22;2420;51.202;8.698;2022-10-04T18:01:40;11.30;1.00
4813;DHT22;2420;51.202;8.698;2022-10-04T18:04:13;11.10;1.00
4813;DHT22;2420;51.202;8.698;2022-10-04T18:09:42;11.00;1.00
4813;DHT22;2420;51.202;8.698;2022-10-04T18:12:38;10.90;1.00
4813;DHT22;2420;51.202;8.698;2022-10-04T18:17:47;10.70;1.00
4813;DHT22;2420;51.202;8.698;2022-10-04T18:20:27;10.60;1.00
4813;DHT22;2420;51.202;8.698;2022-10-04T18:23:01;10.60;1.00
4813;DHT22;2420;51.202;8.698;2022-10-04T18:25:29;10.60;1.00
4813;DHT22;2420;51.202;8.698;2022-10-04T18:33:00;10.50;1.00
4813;DHT22;2420;51.202;8.698;2022-10-04T18:35:31;10.50;1.00
4813;DHT22;2420;51.202;8.698;2022-10-04T18:40:34;10.40;1.00
4813;DHT22;2420;51.202;8.698;2022-10-04T18:42:59;10.30;1.00
4813;DHT22;2420;51.202;8.698;2022-10-04T18:45:33;10.20;1.00
4813;DHT22;2420;51.202;8.698;2022-10-04T18:48:21;10.30;1.00
4813;DHT22;2420;51.202;8.698;2022-10-04T18:50:46;10.20;1.00
4813;DHT22;2420;51.202;8.698;2022-10-04T18:53:43;10.20;1.00
4813;DHT22;2420;51.202;8.698;2022-10-04T18:56:11;10.10;1.00
4813;DHT22;2420;51.202;8.698;2022-10-04T19:02:16;10.10;1.00
4813;DHT22;2420;51.202;8.698;2022-10-04T19:05:08;10.00;1.00
4813;DHT22;2420;51.202;8.698;2022-10-04T19:07:48;9.90;1.00
4813;DHT22;2420;51.202;8.698;2022-10-04T19:16:13;9.80;1.00
4813;DHT22;2420;51.202;8.698;2022-10-04T19:19:05;9.70;1.00
4813;DHT22;2420;51.202;8.698;2022-10-04T19:24:45;9.70;1.00
4813;DHT22;2420;51.202;8.698;2022-10-04T19:27:26;9.70;1.00
4813;DHT22;2420;51.202;8.698;2022-10-04T19:33:02;9.60;1.00
4813;DHT22;2420;51.202;8.698;2022-10-04T19:35:52;9.60;1.00
4813;DHT22;2420;51.202;8.698;2022-10-04T19:44:04;9.40;1.00
4813;DHT22;2420;51.202;8.698;2022-10-04T19:46:50;9.40;1.00
4813;DHT22;2420;51.202;8.698;2022-10-04T19:50:02;9.30;1.00
4813;DHT22;2420;51.202;8.698;2022-10-04T19:52:39;9.30;1.00
4813;DHT22;2420;51.202;8.698;2022-10-04T19:55:25;9.20;1.00
4813;DHT22;2420;51.202;8.698;2022-10-04T20:00:42;9.00;1.00
4813;DHT22;2420;51.202;8.698;2022-10-04T20:03:10;9.00;1.00
4813;DHT22;2420;51.202;8.698;2022-10-04T20:05:42;8.90;1.00
4813;DHT22;2420;51.202;8.698;2022-10-04T20:08:10;8.90;1.00
4813;DHT22;2420;51.202;8.698;2022-10-04T20:10:37;8.90;1.00
4813;DHT22;2420;51.202;8.698;2022-10-04T20:13:22;8.90;1.00
4813;DHT22;2420;51.202;8.698;2022-10-04T20:15:54;8.80;1.00
4813;DHT22;2420;51.202;8.698;2022-10-04T20:26:10;8.70;1.00
4813;DHT22;2420;51.202;8.698;2022-10-04T20:28:39;8.70;1.00
4813;DHT22;2420;51.202;8.698;2022-10-04T20:31:07;8.70;1.00
4813;DHT22;2420;51.202;8.698;2022-10-04T20:41:43;8.60;1.00
4813;DHT22;2420;51.202;8.698;2022-10-04T20:44:46;8.50;1.00
4813;DHT22;2420;51.202;8.698;2022-10-04T20:49:55;8.50;1.00
4813;DHT22;2420;51.202;8.698;2022-10-04T20:52:27;8.50;1.00
4813;DHT22;2420;51.202;8.698;2022-10-04T20:54:53;8.40;1.00
4813;DHT22;2420;51.202;8.698;2022-10-04T20:57:21;8.50;1.00
4813;DHT22;2420;51.202;8.698;2022-10-04T20:59:52;8.50;1.00
4813;DHT22;2420;51.202;8.698;2022-10-04T21:02:19;8.40;1.00
4813;DHT22;2420;51.202;8.698;2022-10-04T21:04:45;8.40;1.00
4813;DHT22;2420;51.202;8.698;2022-10-04T21:07:25;8.40;1.00
4813;DHT22;2420;51.202;8.698;2022-10-04T21:09:52;8.40;1.00
4813;DHT22;2420;51.202;8.698;2022-10-04T21:12:45;8.40;1.00
4813;DHT22;2420;51.202;8.698;2022-10-04T21:15:18;8.30;1.00
4813;DHT22;2420;51.202;8.698;2022-10-04T21:18:07;8.20;1.00
4813;DHT22;2420;51.202;8.698;2022-10-04T21:20:50;8.10;1.00
4813;DHT22;2420;51.202;8.698;2022-10-04T21:23:25;8.10;1.00
4813;DHT22;2420;51.202;8.698;2022-10-04T21:26:21;8.10;1.00
4813;DHT22;2420;51.202;8.698;2022-10-04T21:28:56;8.30;1.00
4813;DHT22;2420;51.202;8.698;2022-10-04T21:31:25;8.20;1.00
4813;DHT22;2420;51.202;8.698;2022-10-04T21:33:51;8.10;1.00
4813;DHT22;2420;51.202;8.698;2022-10-04T21:36:16;8.10;1.00
4813;DHT22;2420;51.202;8.698;2022-10-04T21:38:42;8.10;1.00
4813;DHT22;2420;51.202;8.698;2022-10-04T21:41:07;8.10;1.00
4813;DHT22;2420;51.202;8.698;2022-10-04T21:43:33;8.00;1.00
4813;DHT22;2420;51.202;8.698;2022-10-04T21:45:59;8.10;1.00
4813;DHT22;2420;51.202;8.698;2022-10-04T21:48:25;8.10;1.00
4813;DHT22;2420;51.202;8.698;2022-10-04T21:50:52;8.10;1.00
4813;DHT22;2420;51.202;8.698;2022-10-04T21:53:19;8.10;1.00
4813;DHT22;2420;51.202;8.698;2022-10-04T21:55:45;8.10;1.00
4813;DHT22;2420;51.202;8.698;2022-10-04T21:58:10;8.10;1.00
4813;DHT22;2420;51.202;8.698;2022-10-04T22:00:36;8.10;1.00
4813;DHT22;2420;51.202;8.698;2022-10-04T22:03:02;8.00;1.00
4813;DHT22;2420;51.202;8.698;2022-10-04T22:05:28;8.00;1.00
4813;DHT22;2420;51.202;8.698;2022-10-04T22:07:53;7.90;1.00
4813;DHT22;2420;51.202;8.698;2022-10-04T22:10:19;7.90;1.00
4813;DHT22;2420;51.202;8.698;2022-10-04T22:12:44;7.90;1.00
4813;DHT22;2420;51.202;8.698;2022-10-04T22:15:10;7.90;1.00
4813;DHT22;2420;51.202;8.698;2022-10-04T22:17:36;7.90;1.00
4813;DHT22;2420;51.202;8.698;2022-10-04T22:20:01;7.80;1.00
4813;DHT22;2420;51.202;8.698;2022-10-04T22:22:30;7.80;1.00
4813;DHT22;2420;51.202;8.698;2022-10-04T22:24:57;7.70;1.00
4813;DHT22;2420;51.202;8.698;2022-10-04T22:27:23;7.80;1.00
4813;DHT22;2420;51.202;8.698;2022-10-04T22:29:48;7.80;1.00
4813;DHT22;2420;51.202;8.698;2022-10-04T22:32:21;7.70;1.00
4813;DHT22;2420;51.202;8.698;2022-10-04T22:34:48;7.70;1.00
4813;DHT22;2420;51.202;8.698;2022-10-04T22:37:15;7.70;1.00
4813;DHT22;2420;51.202;8.698;2022-10-04T22:39:41;7.70;1.00
4813;DHT22;2420;51.202;8.698;2022-10-04T22:42:11;7.70;1.00
4813;DHT22;2420;51.202;8.698;2022-10-04T22:44:37;7.60;1.00
4813;DHT22;2420;51.202;8.698;2022-10-04T22:47:08;7.60;1.00
4813;DHT22;2420;51.202;8.698;2022-10-04T22:49:36;7.50;1.00
4813;DHT22;2420;51.202;8.698;2022-10-04T22:52:10;7.50;1.00
4813;DHT22;2420;51.202;8.698;2022-10-04T22:54:40;7.50;1.00
4813;DHT22;2420;51.202;8.698;2022-10-04T22:57:09;7.50;1.00
4813;DHT22;2420;51.202;8.698;2022-10-04T22:59:38;7.50;1.00
4813;DHT22;2420;51.202;8.698;2022-10-04T23:02:16;7.50;1.00
4813;DHT22;2420;51.202;8.698;2022-10-04T23:04:48;7.50;1.00
4813;DHT22;2420;51.202;8.698;2022-10-04T23:07:15;7.40;1.00
4813;DHT22;2420;51.202;8.698;2022-10-04T23:09:41;7.40;1.00
4813;DHT22;2420;51.202;8.698;2022-10-04T23:12:07;7.60;1.00
4813;DHT22;2420;51.202;8.698;2022-10-04T23:14:38;7.60;1.00
4813;DHT22;2420;51.202;8.698;2022-10-04T23:17:27;7.60;1.00
4813;DHT22;2420;51.202;8.698;2022-10-04T23:20:00;7.50;1.00
4813;DHT22;2420;51.202;8.698;2022-10-04T23:22:28;7.50;1.00
4813;DHT22;2420;51.202;8.698;2022-10-04T23:24:55;7.50;1.00
4813;DHT22;2420;51.202;8.698;2022-10-04T23:27:21;7.50;1.00
4813;DHT22;2420;51.202;8.698;2022-10-04T23:29:48;7.50;1.00
4813;DHT22;2420;51.202;8.698;2022-10-04T23:32:16;7.50;1.00
4813;DHT22;2420;51.202;8.698;2022-10-04T23:34:47;7.50;1.00
4813;DHT22;2420;51.202;8.698;2022-10-04T23:37:19;7.40;1.00
4813;DHT22;2420;51.202;8.698;2022-10-04T23:39:46;7.30;1.00
4813;DHT22;2420;51.202;8.698;2022-10-04T23:42:32;7.20;1.00
4813;DHT22;2420;51.202;8.698;2022-10-04T23:44:59;7.20;1.00
4813;DHT22;2420;51.202;8.698;2022-10-04T23:47:33;7.30;1.00
4813;DHT22;2420;51.202;8.698;2022-10-04T23:49:59;7.20;1.00
4813;DHT22;2420;51.202;8.698;2022-10-04T23:52:36;7.20;1.00
4813;DHT22;2420;51.202;8.698;2022-10-04T23:55:16;7.20;1.00
4813;DHT22;2420;51.202;8.698;2022-10-04T23:57:42;7.10;1.00
